Time;durP1;ratioP1;P1;durP2;ratioP2;P2;SDS_P1;SDS_P2;PMS_P1;PMS_P2;Temp;Humidity;BMP_temperature;BMP_pressure;BME280_temperature;BME280_humidity;BME280_pressure;Samples;Min_cycle;Max_cycle;Signal;HPM_P1;HPM_P2
2021/02/26 00:00:43;;;;;;;18.75;4.3;;;;;;;2.55;73.5752;96328.04;;;;
2021/02/26 00:01:44;;;;;;;18.75;4.3;;;;;;;2.55;73.5752;96328.04;;;;
2021/02/26 00:02:44;;;;;;;18.75;4.3;;;;;;;2.55;73.5752;96328.04;;;;
2021/02/26 00:03:45;;;;;;;18.75;4.3;;;;;;;2.55;73.5752;96328.04;;;;
2021/02/26 00:04:46;;;;;;;18.75;4.3;;;;;;;2.55;73.5752;96328.04;;;;
2021/02/26 00:05:46;;;;;;;18.75;4.3;;;;;;;2.55;73.5752;96328.04;;;;
2021/02/26 00:06:48;;;;;;;13.6;3.75;;;;;;;2.51;73.77539;96332.12;;;;
2021/02/26 00:07:49;;;;;;;13.6;3.75;;;;;;;2.51;73.77539;96332.12;;;;
2021/02/26 00:08:50;;;;;;;13.6;3.75;;;;;;;2.51;73.77539;96332.12;;;;
2021/02/26 00:09:50;;;;;;;13.6;3.75;;;;;;;2.51;73.77539;96332.12;;;;
2021/02/26 00:10:51;;;;;;;13.6;3.75;;;;;;;2.51;73.77539;96332.12;;;;
2021/02/26 00:11:53;;;;;;;13.6;3.75;;;;;;;2.51;73.77539;96332.12;;;;
2021/02/26 00:12:54;;;;;;;13.6;3.75;;;;;;;2.51;73.77539;96332.12;;;;
2021/02/26 00:13:55;;;;;;;13.6;3.75;;;;;;;2.51;73.77539;96332.12;;;;
2021/02/26 00:14:55;;;;;;;13.6;3.75;;;;;;;2.51;73.77539;96332.12;;;;
2021/02/26 00:15:56;;;;;;;13.6;3.75;;;;;;;2.51;73.77539;96332.12;;;;
2021/02/26 00:16:57;;;;;;;13.6;3.75;;;;;;;2.51;73.77539;96332.12;;;;
2021/02/26 00:17:58;;;;;;;14.55;3.85;;;;;;;2.47;74.0957;96319.19;;;;
2021/02/26 00:18:59;;;;;;;14.55;3.85;;;;;;;2.47;74.0957;96319.19;;;;
2021/02/26 00:19:59;;;;;;;14.55;3.85;;;;;;;2.47;74.0957;96319.19;;;;
2021/02/26 00:21:00;;;;;;;14.55;3.85;;;;;;;2.47;74.0957;96319.19;;;;
2021/02/26 00:22:01;;;;;;;14.55;3.85;;;;;;;2.47;74.0957;96319.19;;;;
2021/02/26 00:23:03;;;;;;;14.55;3.85;;;;;;;2.47;74.0957;96319.19;;;;
2021/02/26 00:24:05;;;;;;;14.55;3.85;;;;;;;2.47;74.0957;96319.19;;;;
2021/02/26 00:25:06;;;;;;;14.55;3.85;;;;;;;2.47;74.0957;96319.19;;;;
2021/02/26 00:26:11;;;;;;;14.55;3.85;;;;;;;2.47;74.0957;96319.19;;;;
2021/02/26 00:27:12;;;;;;;14.55;3.85;;;;;;;2.47;74.0957;96319.19;;;;
2021/02/26 00:28:13;;;;;;;15.7;4.299999;;;;;;;2.45;74.22949;96321.17;;;;
2021/02/26 00:29:15;;;;;;;15.7;4.299999;;;;;;;2.45;74.22949;96321.17;;;;
2021/02/26 00:30:16;;;;;;;15.7;4.299999;;;;;;;2.45;74.22949;96321.17;;;;
2021/02/26 00:31:18;;;;;;;15.7;4.299999;;;;;;;2.45;74.22949;96321.17;;;;
2021/02/26 00:32:18;;;;;;;15.7;4.299999;;;;;;;2.45;74.22949;96321.17;;;;
2021/02/26 00:33:19;;;;;;;15.7;4.299999;;;;;;;2.45;74.22949;96321.17;;;;
2021/02/26 00:34:20;;;;;;;15.7;4.299999;;;;;;;2.45;74.22949;96321.17;;;;
2021/02/26 00:35:21;;;;;;;15.7;4.299999;;;;;;;2.45;74.22949;96321.17;;;;
2021/02/26 00:36:22;;;;;;;15.7;4.299999;;;;;;;2.45;74.22949;96321.17;;;;
2021/02/26 00:37:23;;;;;;;15.7;4.299999;;;;;;;2.45;74.22949;96321.17;;;;
2021/02/26 00:38:23;;;;;;;15.7;4.299999;;;;;;;2.45;74.22949;96321.17;;;;
2021/02/26 00:39:24;;;;;;;16.5;4;;;;;;;2.38;74.46973;96323.66;;;;
2021/02/26 00:40:25;;;;;;;16.5;4;;;;;;;2.38;74.46973;96323.66;;;;
2021/02/26 00:41:30;;;;;;;16.5;4;;;;;;;2.38;74.46973;96323.66;;;;
2021/02/26 00:42:31;;;;;;;16.5;4;;;;;;;2.38;74.46973;96323.66;;;;
2021/02/26 00:43:31;;;;;;;16.5;4;;;;;;;2.38;74.46973;96323.66;;;;
2021/02/26 00:44:32;;;;;;;16.5;4;;;;;;;2.38;74.46973;96323.66;;;;
2021/02/26 00:45:33;;;;;;;16.5;4;;;;;;;2.38;74.46973;96323.66;;;;
2021/02/26 00:46:35;;;;;;;16.5;4;;;;;;;2.38;74.46973;96323.66;;;;
2021/02/26 00:47:36;;;;;;;16.5;4;;;;;;;2.38;74.46973;96323.66;;;;
2021/02/26 00:48:37;;;;;;;16.5;4;;;;;;;2.38;74.46973;96323.66;;;;
2021/02/26 00:49:37;;;;;;;15.3;3.75;;;;;;;2.33;74.65918;96330.46;;;;
2021/02/26 00:50:38;;;;;;;15.3;3.75;;;;;;;2.33;74.65918;96330.46;;;;
2021/02/26 00:51:41;;;;;;;15.3;3.75;;;;;;;2.33;74.65918;96330.46;;;;
2021/02/26 00:52:41;;;;;;;15.3;3.75;;;;;;;2.33;74.65918;96330.46;;;;
2021/02/26 00:53:42;;;;;;;15.3;3.75;;;;;;;2.33;74.65918;96330.46;;;;
2021/02/26 00:54:42;;;;;;;15.3;3.75;;;;;;;2.33;74.65918;96330.46;;;;
2021/02/26 00:55:43;;;;;;;15.3;3.75;;;;;;;2.33;74.65918;96330.46;;;;
2021/02/26 00:56:43;;;;;;;15.3;3.75;;;;;;;2.33;74.65918;96330.46;;;;
2021/02/26 00:57:44;;;;;;;15.3;3.75;;;;;;;2.33;74.65918;96330.46;;;;
2021/02/26 00:58:44;;;;;;;15.3;3.75;;;;;;;2.33;74.65918;96330.46;;;;
2021/02/26 00:59:45;;;;;;;15.3;3.75;;;;;;;2.33;74.65918;96330.46;;;;
2021/02/26 01:00:45;;;;;;;15.4;3.750001;;;;;;;2.23;74.91406;96326.58;;;;
2021/02/26 01:01:49;;;;;;;15.4;3.750001;;;;;;;2.23;74.91406;96326.58;;;;
2021/02/26 01:02:49;;;;;;;15.4;3.750001;;;;;;;2.23;74.91406;96326.58;;;;
2021/02/26 01:03:50;;;;;;;15.4;3.750001;;;;;;;2.23;74.91406;96326.58;;;;
2021/02/26 01:04:51;;;;;;;15.4;3.750001;;;;;;;2.23;74.91406;96326.58;;;;
2021/02/26 01:05:51;;;;;;;15.4;3.750001;;;;;;;2.23;74.91406;96326.58;;;;
2021/02/26 01:06:53;;;;;;;15.4;3.750001;;;;;;;2.23;74.91406;96326.58;;;;
2021/02/26 01:07:54;;;;;;;15.4;3.750001;;;;;;;2.23;74.91406;96326.58;;;;
2021/02/26 01:08:54;;;;;;;15.4;3.750001;;;;;;;2.23;74.91406;96326.58;;;;
2021/02/26 01:09:55;;;;;;;15.4;3.750001;;;;;;;2.23;74.91406;96326.58;;;;
2021/02/26 01:10:55;;;;;;;15.3;3.75;;;;;;;2.06;75.15918;96327.51;;;;
2021/02/26 01:11:56;;;;;;;15.3;3.75;;;;;;;2.06;75.15918;96327.51;;;;
2021/02/26 01:12:56;;;;;;;15.3;3.75;;;;;;;2.06;75.15918;96327.51;;;;
2021/02/26 01:13:57;;;;;;;15.3;3.75;;;;;;;2.06;75.15918;96327.51;;;;
2021/02/26 01:14:58;;;;;;;15.3;3.75;;;;;;;2.06;75.15918;96327.51;;;;
2021/02/26 01:15:58;;;;;;;15.3;3.75;;;;;;;2.06;75.15918;96327.51;;;;
2021/02/26 01:16:59;;;;;;;15.3;3.75;;;;;;;2.06;75.15918;96327.51;;;;
2021/02/26 01:18:00;;;;;;;15.3;3.75;;;;;;;2.06;75.15918;96327.51;;;;
2021/02/26 01:19:01;;;;;;;15.3;3.75;;;;;;;2.06;75.15918;96327.51;;;;
2021/02/26 01:20:04;;;;;;;15.3;3.75;;;;;;;2.06;75.15918;96327.51;;;;
2021/02/26 01:21:07;;;;;;;15.3;3.75;;;;;;;2.06;75.15918;96327.51;;;;
2021/02/26 01:22:07;;;;;;;14.3;3.8;;;;;;;1.91;75.54102;96333.48;;;;
2021/02/26 01:23:08;;;;;;;14.3;3.8;;;;;;;1.91;75.54102;96333.48;;;;
2021/02/26 01:24:09;;;;;;;14.3;3.8;;;;;;;1.91;75.54102;96333.48;;;;
2021/02/26 01:25:10;;;;;;;14.3;3.8;;;;;;;1.91;75.54102;96333.48;;;;
2021/02/26 01:26:11;;;;;;;14.3;3.8;;;;;;;1.91;75.54102;96333.48;;;;
2021/02/26 01:27:11;;;;;;;14.3;3.8;;;;;;;1.91;75.54102;96333.48;;;;
2021/02/26 01:28:12;;;;;;;14.3;3.8;;;;;;;1.91;75.54102;96333.48;;;;
2021/02/26 01:29:13;;;;;;;14.3;3.8;;;;;;;1.91;75.54102;96333.48;;;;
2021/02/26 01:30:13;;;;;;;14.3;3.8;;;;;;;1.91;75.54102;96333.48;;;;
2021/02/26 01:31:15;;;;;;;14.3;3.8;;;;;;;1.91;75.54102;96333.48;;;;
2021/02/26 01:32:16;;;;;;;15.65;4.500001;;;;;;;1.82;75.88086;96342.42;;;;
2021/02/26 01:33:16;;;;;;;15.65;4.500001;;;;;;;1.82;75.88086;96342.42;;;;
2021/02/26 01:34:17;;;;;;;15.65;4.500001;;;;;;;1.82;75.88086;96342.42;;;;
2021/02/26 01:35:17;;;;;;;15.65;4.500001;;;;;;;1.82;75.88086;96342.42;;;;
2021/02/26 01:36:19;;;;;;;15.65;4.500001;;;;;;;1.82;75.88086;96342.42;;;;
2021/02/26 01:37:19;;;;;;;15.65;4.500001;;;;;;;1.82;75.88086;96342.42;;;;
2021/02/26 01:38:20;;;;;;;15.65;4.500001;;;;;;;1.82;75.88086;96342.42;;;;
2021/02/26 01:39:21;;;;;;;15.65;4.500001;;;;;;;1.82;75.88086;96342.42;;;;
2021/02/26 01:40:21;;;;;;;15.65;4.500001;;;;;;;1.82;75.88086;96342.42;;;;
2021/02/26 01:41:24;;;;;;;15.65;4.500001;;;;;;;1.82;75.88086;96342.42;;;;
2021/02/26 01:42:25;;;;;;;15.65;4.500001;;;;;;;1.82;75.88086;96342.42;;;;
2021/02/26 01:43:25;;;;;;;14.3;3.35;;;;;;;1.86;76.13867;96342.03;;;;
2021/02/26 01:44:26;;;;;;;14.3;3.35;;;;;;;1.86;76.13867;96342.03;;;;
2021/02/26 01:45:26;;;;;;;14.3;3.35;;;;;;;1.86;76.13867;96342.03;;;;
2021/02/26 01:46:29;;;;;;;14.3;3.35;;;;;;;1.86;76.13867;96342.03;;;;
2021/02/26 01:47:30;;;;;;;14.3;3.35;;;;;;;1.86;76.13867;96342.03;;;;
2021/02/26 01:48:30;;;;;;;14.3;3.35;;;;;;;1.86;76.13867;96342.03;;;;
2021/02/26 01:49:31;;;;;;;14.3;3.35;;;;;;;1.86;76.13867;96342.03;;;;
2021/02/26 01:50:32;;;;;;;14.3;3.35;;;;;;;1.86;76.13867;96342.03;;;;
2021/02/26 01:51:35;;;;;;;14.3;3.35;;;;;;;1.86;76.13867;96342.03;;;;
2021/02/26 01:52:35;;;;;;;14.3;3.35;;;;;;;1.86;76.13867;96342.03;;;;
2021/02/26 01:53:36;;;;;;;14.6;4.15;;;;;;;1.84;76.22949;96348.91;;;;
2021/02/26 01:54:36;;;;;;;14.6;4.15;;;;;;;1.84;76.22949;96348.91;;;;
2021/02/26 01:55:37;;;;;;;14.6;4.15;;;;;;;1.84;76.22949;96348.91;;;;
2021/02/26 01:56:38;;;;;;;14.6;4.15;;;;;;;1.84;76.22949;96348.91;;;;
2021/02/26 01:57:39;;;;;;;14.6;4.15;;;;;;;1.84;76.22949;96348.91;;;;
2021/02/26 01:58:40;;;;;;;14.6;4.15;;;;;;;1.84;76.22949;96348.91;;;;
2021/02/26 01:59:41;;;;;;;14.6;4.15;;;;;;;1.84;76.22949;96348.91;;;;
2021/02/26 02:00:41;;;;;;;14.6;4.15;;;;;;;1.84;76.22949;96348.91;;;;
2021/02/26 02:01:45;;;;;;;14.6;4.15;;;;;;;1.84;76.22949;96348.91;;;;
2021/02/26 02:02:45;;;;;;;14.6;4.15;;;;;;;1.84;76.22949;96348.91;;;;
2021/02/26 02:03:47;;;;;;;14.6;4.15;;;;;;;1.84;76.22949;96348.91;;;;
2021/02/26 02:04:48;;;;;;;10.65;3.4;;;;;;;1.89;76.73242;96354.11;;;;
2021/02/26 02:05:49;;;;;;;10.65;3.4;;;;;;;1.89;76.73242;96354.11;;;;
2021/02/26 02:06:49;;;;;;;10.65;3.4;;;;;;;1.89;76.73242;96354.11;;;;
2021/02/26 02:07:50;;;;;;;10.65;3.4;;;;;;;1.89;76.73242;96354.11;;;;
2021/02/26 02:08:50;;;;;;;10.65;3.4;;;;;;;1.89;76.73242;96354.11;;;;
2021/02/26 02:09:51;;;;;;;10.65;3.4;;;;;;;1.89;76.73242;96354.11;;;;
2021/02/26 02:10:52;;;;;;;10.65;3.4;;;;;;;1.89;76.73242;96354.11;;;;
2021/02/26 02:11:52;;;;;;;10.65;3.4;;;;;;;1.89;76.73242;96354.11;;;;
2021/02/26 02:12:53;;;;;;;10.65;3.4;;;;;;;1.89;76.73242;96354.11;;;;
2021/02/26 02:13:55;;;;;;;10.65;3.4;;;;;;;1.89;76.73242;96354.11;;;;
2021/02/26 02:14:57;;;;;;;11.5;3.8;;;;;;;1.97;77.0918;96354.66;;;;
2021/02/26 02:15:58;;;;;;;11.5;3.8;;;;;;;1.97;77.0918;96354.66;;;;
2021/02/26 02:16:59;;;;;;;11.5;3.8;;;;;;;1.97;77.0918;96354.66;;;;
2021/02/26 02:17:59;;;;;;;11.5;3.8;;;;;;;1.97;77.0918;96354.66;;;;
2021/02/26 02:19:00;;;;;;;11.5;3.8;;;;;;;1.97;77.0918;96354.66;;;;
2021/02/26 02:20:03;;;;;;;11.5;3.8;;;;;;;1.97;77.0918;96354.66;;;;
2021/02/26 02:21:07;;;;;;;11.5;3.8;;;;;;;1.97;77.0918;96354.66;;;;
2021/02/26 02:22:08;;;;;;;11.5;3.8;;;;;;;1.97;77.0918;96354.66;;;;
2021/02/26 02:23:16;;;;;;;11.5;3.8;;;;;;;1.97;77.0918;96354.66;;;;
2021/02/26 02:24:18;;;;;;;11.5;3.8;;;;;;;1.97;77.0918;96354.66;;;;
2021/02/26 02:25:19;;;;;;;11.5;3.8;;;;;;;1.97;77.0918;96354.66;;;;
2021/02/26 02:26:21;;;;;;;13.2;3.5;;;;;;;2.02;77.12109;96349.69;;;;
2021/02/26 02:27:22;;;;;;;13.2;3.5;;;;;;;2.02;77.12109;96349.69;;;;
2021/02/26 02:28:28;;;;;;;13.2;3.5;;;;;;;2.02;77.12109;96349.69;;;;
2021/02/26 02:29:28;;;;;;;13.2;3.5;;;;;;;2.02;77.12109;96349.69;;;;
2021/02/26 02:30:28;;;;;;;13.2;3.5;;;;;;;2.02;77.12109;96349.69;;;;
2021/02/26 02:31:32;;;;;;;13.2;3.5;;;;;;;2.02;77.12109;96349.69;;;;
2021/02/26 02:32:33;;;;;;;13.2;3.5;;;;;;;2.02;77.12109;96349.69;;;;
2021/02/26 02:33:33;;;;;;;13.2;3.5;;;;;;;2.02;77.12109;96349.69;;;;
2021/02/26 02:34:34;;;;;;;13.2;3.5;;;;;;;2.02;77.12109;96349.69;;;;
2021/02/26 02:35:35;;;;;;;13.2;3.5;;;;;;;2.02;77.12109;96349.69;;;;
2021/02/26 02:36:36;;;;;;;14.05;3.95;;;;;;;2.01;77.24512;96346.7;;;;
2021/02/26 02:37:37;;;;;;;14.05;3.95;;;;;;;2.01;77.24512;96346.7;;;;
2021/02/26 02:38:38;;;;;;;14.05;3.95;;;;;;;2.01;77.24512;96346.7;;;;
2021/02/26 02:39:39;;;;;;;14.05;3.95;;;;;;;2.01;77.24512;96346.7;;;;
2021/02/26 02:40:39;;;;;;;14.05;3.95;;;;;;;2.01;77.24512;96346.7;;;;
2021/02/26 02:41:43;;;;;;;14.05;3.95;;;;;;;2.01;77.24512;96346.7;;;;
2021/02/26 02:42:43;;;;;;;14.05;3.95;;;;;;;2.01;77.24512;96346.7;;;;
2021/02/26 02:43:45;;;;;;;14.05;3.95;;;;;;;2.01;77.24512;96346.7;;;;
2021/02/26 02:44:46;;;;;;;14.05;3.95;;;;;;;2.01;77.24512;96346.7;;;;
2021/02/26 02:45:47;;;;;;;14.05;3.95;;;;;;;2.01;77.24512;96346.7;;;;
2021/02/26 02:46:49;;;;;;;14.05;3.95;;;;;;;2.01;77.24512;96346.7;;;;
2021/02/26 02:47:50;;;;;;;15.35;4.15;;;;;;;2.07;77.42285;96342.49;;;;
2021/02/26 02:48:53;;;;;;;15.35;4.15;;;;;;;2.07;77.42285;96342.49;;;;
2021/02/26 02:49:56;;;;;;;15.35;4.15;;;;;;;2.07;77.42285;96342.49;;;;
2021/02/26 02:50:56;;;;;;;15.35;4.15;;;;;;;2.07;77.42285;96342.49;;;;
2021/02/26 02:51:59;;;;;;;15.35;4.15;;;;;;;2.07;77.42285;96342.49;;;;
2021/02/26 02:52:59;;;;;;;15.35;4.15;;;;;;;2.07;77.42285;96342.49;;;;
2021/02/26 02:54:00;;;;;;;15.35;4.15;;;;;;;2.07;77.42285;96342.49;;;;
2021/02/26 02:55:00;;;;;;;15.35;4.15;;;;;;;2.07;77.42285;96342.49;;;;
2021/02/26 02:56:01;;;;;;;15.35;4.15;;;;;;;2.07;77.42285;96342.49;;;;
2021/02/26 02:57:03;;;;;;;15.35;4.15;;;;;;;2.07;77.42285;96342.49;;;;
2021/02/26 02:58:05;;;;;;;14.55;4.1;;;;;;;2.16;77.44043;96351.76;;;;
2021/02/26 02:59:07;;;;;;;14.55;4.1;;;;;;;2.16;77.44043;96351.76;;;;
2021/02/26 03:00:08;;;;;;;14.55;4.1;;;;;;;2.16;77.44043;96351.76;;;;
2021/02/26 03:01:11;;;;;;;14.55;4.1;;;;;;;2.16;77.44043;96351.76;;;;
2021/02/26 03:02:12;;;;;;;14.55;4.1;;;;;;;2.16;77.44043;96351.76;;;;
2021/02/26 03:03:12;;;;;;;14.55;4.1;;;;;;;2.16;77.44043;96351.76;;;;
2021/02/26 03:04:15;;;;;;;14.55;4.1;;;;;;;2.16;77.44043;96351.76;;;;
2021/02/26 03:05:15;;;;;;;14.55;4.1;;;;;;;2.16;77.44043;96351.76;;;;
2021/02/26 03:06:19;;;;;;;14.55;4.1;;;;;;;2.16;77.44043;96351.76;;;;
2021/02/26 03:07:20;;;;;;;14.55;4.1;;;;;;;2.16;77.44043;96351.76;;;;
2021/02/26 03:08:20;;;;;;;13.6;4.3;;;;;;;2.31;77.80273;96344.44;;;;
2021/02/26 03:09:24;;;;;;;13.6;4.3;;;;;;;2.31;77.80273;96344.44;;;;
2021/02/26 03:10:24;;;;;;;13.6;4.3;;;;;;;2.31;77.80273;96344.44;;;;
2021/02/26 03:11:28;;;;;;;13.6;4.3;;;;;;;2.31;77.80273;96344.44;;;;
2021/02/26 03:12:28;;;;;;;13.6;4.3;;;;;;;2.31;77.80273;96344.44;;;;
2021/02/26 03:13:29;;;;;;;13.6;4.3;;;;;;;2.31;77.80273;96344.44;;;;
2021/02/26 03:14:31;;;;;;;13.6;4.3;;;;;;;2.31;77.80273;96344.44;;;;
2021/02/26 03:15:31;;;;;;;13.6;4.3;;;;;;;2.31;77.80273;96344.44;;;;
2021/02/26 03:16:35;;;;;;;13.6;4.3;;;;;;;2.31;77.80273;96344.44;;;;
2021/02/26 03:17:36;;;;;;;13.6;4.3;;;;;;;2.31;77.80273;96344.44;;;;
2021/02/26 03:18:37;;;;;;;13.6;4.3;;;;;;;2.31;77.80273;96344.44;;;;
2021/02/26 03:19:38;;;;;;;15.2;4.35;;;;;;;2.42;77.82324;96351.25;;;;
2021/02/26 03:20:38;;;;;;;15.2;4.35;;;;;;;2.42;77.82324;96351.25;;;;
2021/02/26 03:21:42;;;;;;;15.2;4.35;;;;;;;2.42;77.82324;96351.25;;;;
2021/02/26 03:22:42;;;;;;;15.2;4.35;;;;;;;2.42;77.82324;96351.25;;;;
2021/02/26 03:23:43;;;;;;;15.2;4.35;;;;;;;2.42;77.82324;96351.25;;;;
2021/02/26 03:24:43;;;;;;;15.2;4.35;;;;;;;2.42;77.82324;96351.25;;;;
2021/02/26 03:25:44;;;;;;;15.2;4.35;;;;;;;2.42;77.82324;96351.25;;;;
2021/02/26 03:26:45;;;;;;;15.2;4.35;;;;;;;2.42;77.82324;96351.25;;;;
2021/02/26 03:27:46;;;;;;;15.2;4.35;;;;;;;2.42;77.82324;96351.25;;;;
2021/02/26 03:28:46;;;;;;;15.2;4.35;;;;;;;2.42;77.82324;96351.25;;;;
2021/02/26 03:29:46;;;;;;;13;4.400001;;;;;;;2.64;78.25977;96355.16;;;;
2021/02/26 03:30:47;;;;;;;13;4.400001;;;;;;;2.64;78.25977;96355.16;;;;
2021/02/26 03:31:48;;;;;;;13;4.400001;;;;;;;2.64;78.25977;96355.16;;;;
2021/02/26 03:32:49;;;;;;;13;4.400001;;;;;;;2.64;78.25977;96355.16;;;;
2021/02/26 03:33:51;;;;;;;13;4.400001;;;;;;;2.64;78.25977;96355.16;;;;
2021/02/26 03:34:52;;;;;;;13;4.400001;;;;;;;2.64;78.25977;96355.16;;;;
2021/02/26 03:35:52;;;;;;;13;4.400001;;;;;;;2.64;78.25977;96355.16;;;;
2021/02/26 03:36:53;;;;;;;13;4.400001;;;;;;;2.64;78.25977;96355.16;;;;
2021/02/26 03:37:53;;;;;;;13;4.400001;;;;;;;2.64;78.25977;96355.16;;;;
2021/02/26 03:38:54;;;;;;;13;4.400001;;;;;;;2.64;78.25977;96355.16;;;;
2021/02/26 03:39:54;;;;;;;13;4.400001;;;;;;;2.64;78.25977;96355.16;;;;
2021/02/26 03:40:55;;;;;;;11.5;4.15;;;;;;;3.1;78.29199;96355.53;;;;
2021/02/26 03:41:58;;;;;;;11.5;4.15;;;;;;;3.1;78.29199;96355.53;;;;
2021/02/26 03:42:58;;;;;;;11.5;4.15;;;;;;;3.1;78.29199;96355.53;;;;
2021/02/26 03:44:00;;;;;;;11.5;4.15;;;;;;;3.1;78.29199;96355.53;;;;
2021/02/26 03:45:01;;;;;;;11.5;4.15;;;;;;;3.1;78.29199;96355.53;;;;
2021/02/26 03:46:03;;;;;;;11.5;4.15;;;;;;;3.1;78.29199;96355.53;;;;
2021/02/26 03:47:04;;;;;;;11.5;4.15;;;;;;;3.1;78.29199;96355.53;;;;
2021/02/26 03:48:04;;;;;;;11.5;4.15;;;;;;;3.1;78.29199;96355.53;;;;
2021/02/26 03:49:06;;;;;;;11.5;4.15;;;;;;;3.1;78.29199;96355.53;;;;
2021/02/26 03:50:07;;;;;;;11.5;4.15;;;;;;;3.1;78.29199;96355.53;;;;
2021/02/26 03:51:10;;;;;;;19.75;4.699999;;;;;;;3.5;78.34473;96367.6;;;;
2021/02/26 03:52:10;;;;;;;19.75;4.699999;;;;;;;3.5;78.34473;96367.6;;;;
2021/02/26 03:53:11;;;;;;;19.75;4.699999;;;;;;;3.5;78.34473;96367.6;;;;
2021/02/26 03:54:11;;;;;;;19.75;4.699999;;;;;;;3.5;78.34473;96367.6;;;;
2021/02/26 03:55:12;;;;;;;19.75;4.699999;;;;;;;3.5;78.34473;96367.6;;;;
2021/02/26 03:56:14;;;;;;;19.75;4.699999;;;;;;;3.5;78.34473;96367.6;;;;
2021/02/26 03:57:15;;;;;;;19.75;4.699999;;;;;;;3.5;78.34473;96367.6;;;;
2021/02/26 03:58:15;;;;;;;19.75;4.699999;;;;;;;3.5;78.34473;96367.6;;;;
2021/02/26 03:59:16;;;;;;;19.75;4.699999;;;;;;;3.5;78.34473;96367.6;;;;
2021/02/26 04:00:17;;;;;;;19.75;4.699999;;;;;;;3.5;78.34473;96367.6;;;;
2021/02/26 04:01:20;;;;;;;19.75;4.699999;;;;;;;3.5;78.34473;96367.6;;;;
2021/02/26 04:02:20;;;;;;;23.1;4.950001;;;;;;;3.77;78.30957;96369.51;;;;
2021/02/26 04:03:21;;;;;;;23.1;4.950001;;;;;;;3.77;78.30957;96369.51;;;;
2021/02/26 04:04:22;;;;;;;23.1;4.950001;;;;;;;3.77;78.30957;96369.51;;;;
2021/02/26 04:05:22;;;;;;;23.1;4.950001;;;;;;;3.77;78.30957;96369.51;;;;
2021/02/26 04:06:23;;;;;;;23.1;4.950001;;;;;;;3.77;78.30957;96369.51;;;;
2021/02/26 04:07:24;;;;;;;23.1;4.950001;;;;;;;3.77;78.30957;96369.51;;;;
2021/02/26 04:08:24;;;;;;;23.1;4.950001;;;;;;;3.77;78.30957;96369.51;;;;
2021/02/26 04:09:25;;;;;;;23.1;4.950001;;;;;;;3.77;78.30957;96369.51;;;;
2021/02/26 04:10:25;;;;;;;23.1;4.950001;;;;;;;3.77;78.30957;96369.51;;;;
2021/02/26 04:11:26;;;;;;;23.1;4.950001;;;;;;;3.77;78.30957;96369.51;;;;
2021/02/26 04:12:26;;;;;;;13.9;4.950001;;;;;;;3.93;78.21094;96363.75;;;;
2021/02/26 04:13:27;;;;;;;13.9;4.950001;;;;;;;3.93;78.21094;96363.75;;;;
2021/02/26 04:14:27;;;;;;;13.9;4.950001;;;;;;;3.93;78.21094;96363.75;;;;
2021/02/26 04:15:28;;;;;;;13.9;4.950001;;;;;;;3.93;78.21094;96363.75;;;;
2021/02/26 04:16:30;;;;;;;13.9;4.950001;;;;;;;3.93;78.21094;96363.75;;;;
2021/02/26 04:17:30;;;;;;;13.9;4.950001;;;;;;;3.93;78.21094;96363.75;;;;
2021/02/26 04:18:31;;;;;;;13.9;4.950001;;;;;;;3.93;78.21094;96363.75;;;;
2021/02/26 04:19:31;;;;;;;13.9;4.950001;;;;;;;3.93;78.21094;96363.75;;;;
2021/02/26 04:20:32;;;;;;;13.9;4.950001;;;;;;;3.93;78.21094;96363.75;;;;
2021/02/26 04:21:32;;;;;;;13.9;4.950001;;;;;;;3.93;78.21094;96363.75;;;;
2021/02/26 04:22:33;;;;;;;13.9;4.950001;;;;;;;3.93;78.21094;96363.75;;;;
2021/02/26 04:23:33;;;;;;;18.45;5.5;;;;;;;3.97;78.35645;96372.61;;;;
2021/02/26 04:24:34;;;;;;;18.45;5.5;;;;;;;3.97;78.35645;96372.61;;;;
2021/02/26 04:25:35;;;;;;;18.45;5.5;;;;;;;3.97;78.35645;96372.61;;;;
2021/02/26 04:26:35;;;;;;;18.45;5.5;;;;;;;3.97;78.35645;96372.61;;;;
2021/02/26 04:27:36;;;;;;;18.45;5.5;;;;;;;3.97;78.35645;96372.61;;;;
2021/02/26 04:28:37;;;;;;;18.45;5.5;;;;;;;3.97;78.35645;96372.61;;;;
2021/02/26 04:29:37;;;;;;;18.45;5.5;;;;;;;3.97;78.35645;96372.61;;;;
2021/02/26 04:30:38;;;;;;;18.45;5.5;;;;;;;3.97;78.35645;96372.61;;;;
2021/02/26 04:31:39;;;;;;;18.45;5.5;;;;;;;3.97;78.35645;96372.61;;;;
2021/02/26 04:32:39;;;;;;;18.45;5.5;;;;;;;3.97;78.35645;96372.61;;;;
2021/02/26 04:33:41;;;;;;;18.45;5.5;;;;;;;3.97;78.35645;96372.61;;;;
2021/02/26 04:34:41;;;;;;;20.4;5.15;;;;;;;4.01;78.44727;96371.23;;;;
2021/02/26 04:35:42;;;;;;;20.4;5.15;;;;;;;4.01;78.44727;96371.23;;;;
2021/02/26 04:36:42;;;;;;;20.4;5.15;;;;;;;4.01;78.44727;96371.23;;;;
2021/02/26 04:37:43;;;;;;;20.4;5.15;;;;;;;4.01;78.44727;96371.23;;;;
2021/02/26 04:38:44;;;;;;;20.4;5.15;;;;;;;4.01;78.44727;96371.23;;;;
2021/02/26 04:39:45;;;;;;;20.4;5.15;;;;;;;4.01;78.44727;96371.23;;;;
2021/02/26 04:40:45;;;;;;;20.4;5.15;;;;;;;4.01;78.44727;96371.23;;;;
2021/02/26 04:41:46;;;;;;;20.4;5.15;;;;;;;4.01;78.44727;96371.23;;;;
2021/02/26 04:42:48;;;;;;;20.4;5.15;;;;;;;4.01;78.44727;96371.23;;;;
2021/02/26 04:43:48;;;;;;;20.4;5.15;;;;;;;4.01;78.44727;96371.23;;;;
2021/02/26 04:44:49;;;;;;;16.5;5.600001;;;;;;;3.97;78.38672;96375.76;;;;
2021/02/26 04:45:50;;;;;;;16.5;5.600001;;;;;;;3.97;78.38672;96375.76;;;;
2021/02/26 04:46:50;;;;;;;16.5;5.600001;;;;;;;3.97;78.38672;96375.76;;;;
2021/02/26 04:47:51;;;;;;;16.5;5.600001;;;;;;;3.97;78.38672;96375.76;;;;
2021/02/26 04:48:51;;;;;;;16.5;5.600001;;;;;;;3.97;78.38672;96375.76;;;;
2021/02/26 04:49:52;;;;;;;16.5;5.600001;;;;;;;3.97;78.38672;96375.76;;;;
2021/02/26 04:50:52;;;;;;;16.5;5.600001;;;;;;;3.97;78.38672;96375.76;;;;
2021/02/26 04:51:53;;;;;;;16.5;5.600001;;;;;;;3.97;78.38672;96375.76;;;;
2021/02/26 04:52:53;;;;;;;16.5;5.600001;;;;;;;3.97;78.38672;96375.76;;;;
2021/02/26 04:53:54;;;;;;;16.5;5.600001;;;;;;;3.97;78.38672;96375.76;;;;
2021/02/26 04:54:54;;;;;;;16.5;5.600001;;;;;;;3.97;78.38672;96375.76;;;;
2021/02/26 04:55:55;;;;;;;20.3;5.599999;;;;;;;3.97;78.53418;96363.75;;;;
2021/02/26 04:56:55;;;;;;;20.3;5.599999;;;;;;;3.97;78.53418;96363.75;;;;
2021/02/26 04:57:56;;;;;;;20.3;5.599999;;;;;;;3.97;78.53418;96363.75;;;;
2021/02/26 04:58:56;;;;;;;20.3;5.599999;;;;;;;3.97;78.53418;96363.75;;;;
2021/02/26 04:59:57;;;;;;;20.3;5.599999;;;;;;;3.97;78.53418;96363.75;;;;
2021/02/26 05:00:57;;;;;;;20.3;5.599999;;;;;;;3.97;78.53418;96363.75;;;;
2021/02/26 05:01:58;;;;;;;20.3;5.599999;;;;;;;3.97;78.53418;96363.75;;;;
2021/02/26 05:02:58;;;;;;;20.3;5.599999;;;;;;;3.97;78.53418;96363.75;;;;
2021/02/26 05:03:59;;;;;;;20.3;5.599999;;;;;;;3.97;78.53418;96363.75;;;;
2021/02/26 05:04:59;;;;;;;20.3;5.599999;;;;;;;3.97;78.53418;96363.75;;;;
2021/02/26 05:06:00;;;;;;;24.45;6.2;;;;;;;3.89;78.46777;96367.25;;;;
2021/02/26 05:07:01;;;;;;;24.45;6.2;;;;;;;3.89;78.46777;96367.25;;;;
2021/02/26 05:08:01;;;;;;;24.45;6.2;;;;;;;3.89;78.46777;96367.25;;;;
2021/02/26 05:09:02;;;;;;;24.45;6.2;;;;;;;3.89;78.46777;96367.25;;;;
2021/02/26 05:10:03;;;;;;;24.45;6.2;;;;;;;3.89;78.46777;96367.25;;;;
2021/02/26 05:11:04;;;;;;;24.45;6.2;;;;;;;3.89;78.46777;96367.25;;;;
2021/02/26 05:12:05;;;;;;;24.45;6.2;;;;;;;3.89;78.46777;96367.25;;;;
2021/02/26 05:13:07;;;;;;;24.45;6.2;;;;;;;3.89;78.46777;96367.25;;;;
2021/02/26 05:14:07;;;;;;;24.45;6.2;;;;;;;3.89;78.46777;96367.25;;;;
2021/02/26 05:15:08;;;;;;;24.45;6.2;;;;;;;3.89;78.46777;96367.25;;;;
2021/02/26 05:16:11;;;;;;;24.45;6.2;;;;;;;3.89;78.46777;96367.25;;;;
2021/02/26 05:17:12;;;;;;;20.1;6.3;;;;;;;3.69;78.45215;96352.99;;;;
2021/02/26 05:18:12;;;;;;;20.1;6.3;;;;;;;3.69;78.45215;96352.99;;;;
2021/02/26 05:19:13;;;;;;;20.1;6.3;;;;;;;3.69;78.45215;96352.99;;;;
2021/02/26 05:20:14;;;;;;;20.1;6.3;;;;;;;3.69;78.45215;96352.99;;;;
2021/02/26 05:21:17;;;;;;;20.1;6.3;;;;;;;3.69;78.45215;96352.99;;;;
2021/02/26 05:22:17;;;;;;;20.1;6.3;;;;;;;3.69;78.45215;96352.99;;;;
2021/02/26 05:23:18;;;;;;;20.1;6.3;;;;;;;3.69;78.45215;96352.99;;;;
2021/02/26 05:24:18;;;;;;;20.1;6.3;;;;;;;3.69;78.45215;96352.99;;;;
2021/02/26 05:25:19;;;;;;;20.1;6.3;;;;;;;3.69;78.45215;96352.99;;;;
2021/02/26 05:26:19;;;;;;;20.1;6.3;;;;;;;3.69;78.45215;96352.99;;;;
2021/02/26 05:27:20;;;;;;;23.15;5.799999;;;;;;;3.5;78.78613;96350.25;;;;
2021/02/26 05:28:20;;;;;;;23.15;5.799999;;;;;;;3.5;78.78613;96350.25;;;;
2021/02/26 05:29:21;;;;;;;23.15;5.799999;;;;;;;3.5;78.78613;96350.25;;;;
2021/02/26 05:30:21;;;;;;;23.15;5.799999;;;;;;;3.5;78.78613;96350.25;;;;
2021/02/26 05:31:22;;;;;;;23.15;5.799999;;;;;;;3.5;78.78613;96350.25;;;;
2021/02/26 05:32:23;;;;;;;23.15;5.799999;;;;;;;3.5;78.78613;96350.25;;;;
2021/02/26 05:33:23;;;;;;;23.15;5.799999;;;;;;;3.5;78.78613;96350.25;;;;
2021/02/26 05:34:24;;;;;;;23.15;5.799999;;;;;;;3.5;78.78613;96350.25;;;;
2021/02/26 05:35:24;;;;;;;23.15;5.799999;;;;;;;3.5;78.78613;96350.25;;;;
2021/02/26 05:36:25;;;;;;;23.15;5.799999;;;;;;;3.5;78.78613;96350.25;;;;
2021/02/26 05:37:25;;;;;;;23.15;5.799999;;;;;;;3.5;78.78613;96350.25;;;;
2021/02/26 05:38:27;;;;;;;20.5;5.1;;;;;;;3.48;79.15039;96354.5;;;;
2021/02/26 05:39:27;;;;;;;20.5;5.1;;;;;;;3.48;79.15039;96354.5;;;;
2021/02/26 05:40:28;;;;;;;20.5;5.1;;;;;;;3.48;79.15039;96354.5;;;;
2021/02/26 05:41:28;;;;;;;20.5;5.1;;;;;;;3.48;79.15039;96354.5;;;;
2021/02/26 05:42:31;;;;;;;20.5;5.1;;;;;;;3.48;79.15039;96354.5;;;;
2021/02/26 05:43:32;;;;;;;20.5;5.1;;;;;;;3.48;79.15039;96354.5;;;;
2021/02/26 05:44:38;;;;;;;20.5;5.1;;;;;;;3.48;79.15039;96354.5;;;;
2021/02/26 05:45:40;;;;;;;20.5;5.1;;;;;;;3.48;79.15039;96354.5;;;;